VIDP/DEL METAR and TAF weather

Enter ICAO airport designator
Station Type Date Time Source
VIDP METAR 2021/05/11 01:00 UTC NOAA

VIDP 110100Z 12004KT 2200 HZ FEW040 SCT100 27/19 Q1005 NOSIG


Station Type Date Time Source
VIDP Decoded METAR 2021/05/11 01:00 UTC NOAA

New Delhi / Palam, India (VIDP) 28-34N 077-07E 233M
May 10, 2021 - 09:00 PM EDT / 2021.05.11 0100 UTC
Wind: from the ESE (120 degrees) at 5 MPH (4 KT):0
Visibility: 1 mile(s):0
Sky conditions: partly cloudy
Weather: haze
Temperature: 80 F (27 C)
Dew Point: 66 F (19 C)
Relative Humidity: 61%
Pressure (altimeter): 29.68 in. Hg (1005 hPa)
ob: VIDP 110100Z 12004KT 2200 HZ FEW040 SCT100 27/19 Q1005 NOSIG
cycle: 1

Station Type Date Time Source
VIDP TAF 2021/05/10 18:57 UTC NOAA

TAF VIDP 101700Z 1018/1124 11005KT 3000 HZ FEW040 SCT100
TEMPO 1023/1102 TS FEW040CB BKN100
BECMG 1104/1106 27008KT 3500 HZ FEW040 SCT100
TEMPO 1109/1112 23010G20KT 1500 -TSRA SCT030 FEW040CB BKN090
BECMG 1117/1119 23008KT 3000 HZ

Example: see airport list